sensor_id;sensor_type;location;lat;lon;timestamp;temperature;humidity
25046;DHT22;13044;49.304;12.840;2023-07-16T00:02:23;25.50;71.40
25046;DHT22;13044;49.304;12.840;2023-07-16T00:04:51;25.50;71.20
25046;DHT22;13044;49.304;12.840;2023-07-16T00:07:18;25.50;72.00
25046;DHT22;13044;49.304;12.840;2023-07-16T00:09:45;25.50;71.50
25046;DHT22;13044;49.304;12.840;2023-07-16T00:12:12;25.50;71.70
25046;DHT22;13044;49.304;12.840;2023-07-16T00:14:40;25.50;72.00
25046;DHT22;13044;49.304;12.840;2023-07-16T00:17:06;25.50;71.80
25046;DHT22;13044;49.304;12.840;2023-07-16T00:19:33;25.50;72.10
25046;DHT22;13044;49.304;12.840;2023-07-16T00:22:01;25.50;72.80
25046;DHT22;13044;49.304;12.840;2023-07-16T00:24:28;25.40;73.20
25046;DHT22;13044;49.304;12.840;2023-07-16T00:26:55;25.40;72.80
25046;DHT22;13044;49.304;12.840;2023-07-16T00:29:21;25.40;72.50
25046;DHT22;13044;49.304;12.840;2023-07-16T00:31:48;25.40;72.40
25046;DHT22;13044;49.304;12.840;2023-07-16T00:34:15;25.50;72.50
25046;DHT22;13044;49.304;12.840;2023-07-16T00:36:42;25.40;72.30
25046;DHT22;13044;49.304;12.840;2023-07-16T00:39:09;25.40;72.70
25046;DHT22;13044;49.304;12.840;2023-07-16T00:41:36;25.40;73.00
25046;DHT22;13044;49.304;12.840;2023-07-16T00:44:03;25.40;73.00
25046;DHT22;13044;49.304;12.840;2023-07-16T00:46:30;25.40;73.20
25046;DHT22;13044;49.304;12.840;2023-07-16T00:48:57;25.40;72.80
25046;DHT22;13044;49.304;12.840;2023-07-16T00:51:24;25.40;73.20
25046;DHT22;13044;49.304;12.840;2023-07-16T00:53:52;25.40;73.60
25046;DHT22;13044;49.304;12.840;2023-07-16T00:56:20;25.30;73.50
25046;DHT22;13044;49.304;12.840;2023-07-16T00:58:47;25.30;74.20
25046;DHT22;13044;49.304;12.840;2023-07-16T01:01:14;25.30;74.10
25046;DHT22;13044;49.304;12.840;2023-07-16T01:03:41;25.30;74.00
25046;DHT22;13044;49.304;12.840;2023-07-16T01:06:30;25.30;74.30
25046;DHT22;13044;49.304;12.840;2023-07-16T01:09:20;25.30;73.90
25046;DHT22;13044;49.304;12.840;2023-07-16T01:11:48;25.40;74.20
25046;DHT22;13044;49.304;12.840;2023-07-16T01:14:18;25.30;74.20
25046;DHT22;13044;49.304;12.840;2023-07-16T01:16:45;25.30;74.90
25046;DHT22;13044;49.304;12.840;2023-07-16T01:19:12;25.30;74.40
25046;DHT22;13044;49.304;12.840;2023-07-16T01:24:57;25.20;75.80
25046;DHT22;13044;49.304;12.840;2023-07-16T01:30:27;25.20;76.20
25046;DHT22;13044;49.304;12.840;2023-07-16T01:32:55;25.10;76.10
25046;DHT22;13044;49.304;12.840;2023-07-16T01:35:24;25.10;77.30
25046;DHT22;13044;49.304;12.840;2023-07-16T01:37:52;25.10;77.30
25046;DHT22;13044;49.304;12.840;2023-07-16T01:40:19;25.10;77.60
25046;DHT22;13044;49.304;12.840;2023-07-16T01:42:46;25.00;77.70
25046;DHT22;13044;49.304;12.840;2023-07-16T01:45:13;25.00;77.20
25046;DHT22;13044;49.304;12.840;2023-07-16T01:47:55;25.00;77.70
25046;DHT22;13044;49.304;12.840;2023-07-16T01:50:27;25.00;79.60
25046;DHT22;13044;49.304;12.840;2023-07-16T01:52:54;24.90;80.70
25046;DHT22;13044;49.304;12.840;2023-07-16T01:55:21;24.80;82.90
25046;DHT22;13044;49.304;12.840;2023-07-16T01:57:48;24.70;86.10
25046;DHT22;13044;49.304;12.840;2023-07-16T02:00:15;24.50;90.90
25046;DHT22;13044;49.304;12.840;2023-07-16T02:02:42;24.30;91.10
25046;DHT22;13044;49.304;12.840;2023-07-16T02:05:09;24.10;91.90
25046;DHT22;13044;49.304;12.840;2023-07-16T02:07:36;24.10;92.40
25046;DHT22;13044;49.304;12.840;2023-07-16T02:10:03;24.00;92.90
25046;DHT22;13044;49.304;12.840;2023-07-16T02:12:30;24.00;93.40
25046;DHT22;13044;49.304;12.840;2023-07-16T02:14:57;23.90;94.30
25046;DHT22;13044;49.304;12.840;2023-07-16T02:17:24;23.90;94.70
25046;DHT22;13044;49.304;12.840;2023-07-16T02:19:51;23.90;95.20
25046;DHT22;13044;49.304;12.840;2023-07-16T02:22:18;23.80;95.90
25046;DHT22;13044;49.304;12.840;2023-07-16T02:24:44;23.80;96.90
25046;DHT22;13044;49.304;12.840;2023-07-16T02:27:12;23.70;96.60
25046;DHT22;13044;49.304;12.840;2023-07-16T02:29:38;23.70;98.50
25046;DHT22;13044;49.304;12.840;2023-07-16T02:32:06;23.60;98.60
25046;DHT22;13044;49.304;12.840;2023-07-16T02:34:33;23.60;99.60
25046;DHT22;13044;49.304;12.840;2023-07-16T02:37:00;23.60;99.90
25046;DHT22;13044;49.304;12.840;2023-07-16T02:39:27;23.60;99.90
25046;DHT22;13044;49.304;12.840;2023-07-16T02:41:54;23.50;99.90
25046;DHT22;13044;49.304;12.840;2023-07-16T02:44:21;23.50;99.90
25046;DHT22;13044;49.304;12.840;2023-07-16T02:46:47;23.50;99.90
25046;DHT22;13044;49.304;12.840;2023-07-16T02:49:14;23.40;99.90
25046;DHT22;13044;49.304;12.840;2023-07-16T02:51:41;23.20;99.90
25046;DHT22;13044;49.304;12.840;2023-07-16T02:54:08;23.20;99.90
25046;DHT22;13044;49.304;12.840;2023-07-16T02:56:35;23.10;99.90
25046;DHT22;13044;49.304;12.840;2023-07-16T02:59:02;23.10;99.90
25046;DHT22;13044;49.304;12.840;2023-07-16T03:01:29;23.10;99.90
25046;DHT22;13044;49.304;12.840;2023-07-16T03:03:56;23.10;99.90
25046;DHT22;13044;49.304;12.840;2023-07-16T03:06:23;23.10;99.90
25046;DHT22;13044;49.304;12.840;2023-07-16T03:08:51;23.10;99.90
25046;DHT22;13044;49.304;12.840;2023-07-16T03:11:17;23.00;99.90
25046;DHT22;13044;49.304;12.840;2023-07-16T03:13:44;22.90;99.90
25046;DHT22;13044;49.304;12.840;2023-07-16T03:16:11;23.00;99.90
25046;DHT22;13044;49.304;12.840;2023-07-16T03:18:38;22.90;99.90
25046;DHT22;13044;49.304;12.840;2023-07-16T03:21:05;22.90;99.90
25046;DHT22;13044;49.304;12.840;2023-07-16T03:23:32;22.90;99.90
25046;DHT22;13044;49.304;12.840;2023-07-16T03:25:59;22.90;99.90
25046;DHT22;13044;49.304;12.840;2023-07-16T03:28:26;22.90;99.90
25046;DHT22;13044;49.304;12.840;2023-07-16T03:30:52;22.90;99.90
25046;DHT22;13044;49.304;12.840;2023-07-16T03:33:20;22.80;99.90
25046;DHT22;13044;49.304;12.840;2023-07-16T03:35:48;22.80;99.90
25046;DHT22;13044;49.304;12.840;2023-07-16T03:38:16;22.80;99.90
25046;DHT22;13044;49.304;12.840;2023-07-16T03:40:47;22.80;99.90
25046;DHT22;13044;49.304;12.840;2023-07-16T03:43:17;22.80;99.90
25046;DHT22;13044;49.304;12.840;2023-07-16T03:45:45;22.80;99.90
25046;DHT22;13044;49.304;12.840;2023-07-16T03:48:12;22.90;99.90
25046;DHT22;13044;49.304;12.840;2023-07-16T03:50:39;22.90;99.90
25046;DHT22;13044;49.304;12.840;2023-07-16T03:53:07;22.80;99.90
25046;DHT22;13044;49.304;12.840;2023-07-16T03:55:34;22.80;99.90
25046;DHT22;13044;49.304;12.840;2023-07-16T03:58:01;22.80;99.90
25046;DHT22;13044;49.304;12.840;2023-07-16T04:00:28;22.80;99.90
25046;DHT22;13044;49.304;12.840;2023-07-16T04:02:55;22.80;99.90
25046;DHT22;13044;49.304;12.840;2023-07-16T04:05:23;22.80;99.90
25046;DHT22;13044;49.304;12.840;2023-07-16T04:07:50;22.80;99.90
25046;DHT22;13044;49.304;12.840;2023-07-16T04:10:17;22.80;99.90
25046;DHT22;13044;49.304;12.840;2023-07-16T04:12:44;22.80;99.90
25046;DHT22;13044;49.304;12.840;2023-07-16T04:15:11;22.80;99.90
25046;DHT22;13044;49.304;12.840;2023-07-16T04:17:38;22.80;99.90
25046;DHT22;13044;49.304;12.840;2023-07-16T04:20:06;22.80;99.90
25046;DHT22;13044;49.304;12.840;2023-07-16T04:22:34;22.80;99.90
25046;DHT22;13044;49.304;12.840;2023-07-16T04:25:02;22.80;99.90
25046;DHT22;13044;49.304;12.840;2023-07-16T04:27:30;22.80;99.90
25046;DHT22;13044;49.304;12.840;2023-07-16T04:29:57;22.80;99.90
25046;DHT22;13044;49.304;12.840;2023-07-16T04:32:24;22.80;99.90
25046;DHT22;13044;49.304;12.840;2023-07-16T04:34:51;22.80;99.90
25046;DHT22;13044;49.304;12.840;2023-07-16T04:37:18;22.80;99.90
25046;DHT22;13044;49.304;12.840;2023-07-16T04:39:44;22.80;99.90
25046;DHT22;13044;49.304;12.840;2023-07-16T04:42:11;22.80;99.90
25046;DHT22;13044;49.304;12.840;2023-07-16T04:44:38;22.80;99.90
25046;DHT22;13044;49.304;12.840;2023-07-16T04:47:05;22.80;99.90
25046;DHT22;13044;49.304;12.840;2023-07-16T04:49:34;22.90;99.90
25046;DHT22;13044;49.304;12.840;2023-07-16T04:52:02;22.90;99.90
25046;DHT22;13044;49.304;12.840;2023-07-16T04:54:34;22.90;99.90
25046;DHT22;13044;49.304;12.840;2023-07-16T04:57:01;22.90;99.90
25046;DHT22;13044;49.304;12.840;2023-07-16T04:59:28;22.80;99.90
25046;DHT22;13044;49.304;12.840;2023-07-16T05:01:55;22.80;99.90
25046;DHT22;13044;49.304;12.840;2023-07-16T05:04:22;22.70;99.90
25046;DHT22;13044;49.304;12.840;2023-07-16T05:06:49;22.70;99.90
25046;DHT22;13044;49.304;12.840;2023-07-16T05:09:16;22.70;99.90
25046;DHT22;13044;49.304;12.840;2023-07-16T05:11:43;22.70;99.90
25046;DHT22;13044;49.304;12.840;2023-07-16T05:14:10;22.70;99.90
25046;DHT22;13044;49.304;12.840;2023-07-16T05:16:36;22.70;99.90
25046;DHT22;13044;49.304;12.840;2023-07-16T05:19:03;22.70;99.90
25046;DHT22;13044;49.304;12.840;2023-07-16T05:21:30;22.70;99.90
25046;DHT22;13044;49.304;12.840;2023-07-16T05:23:57;22.70;99.90
25046;DHT22;13044;49.304;12.840;2023-07-16T05:26:24;22.60;99.90
25046;DHT22;13044;49.304;12.840;2023-07-16T05:28:51;22.60;99.90
25046;DHT22;13044;49.304;12.840;2023-07-16T05:31:18;22.60;99.90
25046;DHT22;13044;49.304;12.840;2023-07-16T05:33:45;22.60;99.90
25046;DHT22;13044;49.304;12.840;2023-07-16T05:36:11;22.60;99.90
25046;DHT22;13044;49.304;12.840;2023-07-16T05:38:39;22.50;99.90
25046;DHT22;13044;49.304;12.840;2023-07-16T05:41:05;22.50;99.90
25046;DHT22;13044;49.304;12.840;2023-07-16T05:43:32;22.50;99.90
25046;DHT22;13044;49.304;12.840;2023-07-16T05:45:59;22.50;99.90
25046;DHT22;13044;49.304;12.840;2023-07-16T05:48:26;22.50;99.90
25046;DHT22;13044;49.304;12.840;2023-07-16T05:50:53;22.50;99.90
25046;DHT22;13044;49.304;12.840;2023-07-16T05:53:20;22.50;99.90
25046;DHT22;13044;49.304;12.840;2023-07-16T05:55:47;22.50;99.90
25046;DHT22;13044;49.304;12.840;2023-07-16T05:58:16;22.50;99.90
25046;DHT22;13044;49.304;12.840;2023-07-16T06:00:43;22.50;99.90
25046;DHT22;13044;49.304;12.840;2023-07-16T06:03:10;22.50;99.90
25046;DHT22;13044;49.304;12.840;2023-07-16T06:05:37;22.50;99.90
25046;DHT22;13044;49.304;12.840;2023-07-16T06:08:04;22.50;99.90
25046;DHT22;13044;49.304;12.840;2023-07-16T06:10:34;22.50;99.90
25046;DHT22;13044;49.304;12.840;2023-07-16T06:13:01;22.50;99.90
25046;DHT22;13044;49.304;12.840;2023-07-16T06:15:28;22.50;99.90
25046;DHT22;13044;49.304;12.840;2023-07-16T06:17:55;22.50;99.90
25046;DHT22;13044;49.304;12.840;2023-07-16T06:20:22;22.50;99.90
25046;DHT22;13044;49.304;12.840;2023-07-16T06:22:49;22.50;99.90
25046;DHT22;13044;49.304;12.840;2023-07-16T06:25:16;22.40;99.90
25046;DHT22;13044;49.304;12.840;2023-07-16T06:27:43;22.40;99.90
25046;DHT22;13044;49.304;12.840;2023-07-16T06:30:10;22.40;99.90
25046;DHT22;13044;49.304;12.840;2023-07-16T06:32:36;22.40;99.90
25046;DHT22;13044;49.304;12.840;2023-07-16T06:35:04;22.40;99.90
25046;DHT22;13044;49.304;12.840;2023-07-16T06:37:31;22.30;99.90
25046;DHT22;13044;49.304;12.840;2023-07-16T06:39:58;22.30;99.90
25046;DHT22;13044;49.304;12.840;2023-07-16T06:42:25;22.30;99.90
25046;DHT22;13044;49.304;12.840;2023-07-16T06:44:51;22.20;99.90
25046;DHT22;13044;49.304;12.840;2023-07-16T06:47:18;22.20;99.90
25046;DHT22;13044;49.304;12.840;2023-07-16T06:49:45;22.20;99.90
25046;DHT22;13044;49.304;12.840;2023-07-16T06:52:22;22.20;99.90
25046;DHT22;13044;49.304;12.840;2023-07-16T06:54:49;22.20;99.90
25046;DHT22;13044;49.304;12.840;2023-07-16T06:57:16;22.10;99.90
25046;DHT22;13044;49.304;12.840;2023-07-16T06:59:43;22.10;99.90
25046;DHT22;13044;49.304;12.840;2023-07-16T07:02:10;22.00;99.90
25046;DHT22;13044;49.304;12.840;2023-07-16T07:04:37;22.00;99.90
25046;DHT22;13044;49.304;12.840;2023-07-16T07:07:04;22.00;99.90
25046;DHT22;13044;49.304;12.840;2023-07-16T07:09:32;22.00;99.90
25046;DHT22;13044;49.304;12.840;2023-07-16T07:11:59;22.00;99.90
25046;DHT22;13044;49.304;12.840;2023-07-16T07:14:26;22.10;99.90
25046;DHT22;13044;49.304;12.840;2023-07-16T07:16:53;22.10;99.90
25046;DHT22;13044;49.304;12.840;2023-07-16T07:19:20;22.10;99.90
25046;DHT22;13044;49.304;12.840;2023-07-16T07:21:47;22.10;99.90
25046;DHT22;13044;49.304;12.840;2023-07-16T07:24:14;22.20;99.90
25046;DHT22;13044;49.304;12.840;2023-07-16T07:26:41;22.10;99.90
25046;DHT22;13044;49.304;12.840;2023-07-16T07:29:08;22.10;99.90
25046;DHT22;13044;49.304;12.840;2023-07-16T07:31:35;22.10;99.90
25046;DHT22;13044;49.304;12.840;2023-07-16T07:34:02;22.00;99.90
25046;DHT22;13044;49.304;12.840;2023-07-16T07:36:29;21.90;99.90
25046;DHT22;13044;49.304;12.840;2023-07-16T07:38:56;22.00;99.90
25046;DHT22;13044;49.304;12.840;2023-07-16T07:41:23;21.90;99.90
25046;DHT22;13044;49.304;12.840;2023-07-16T07:43:50;22.00;99.90
25046;DHT22;13044;49.304;12.840;2023-07-16T07:46:16;22.00;99.90
25046;DHT22;13044;49.304;12.840;2023-07-16T07:48:44;22.00;99.90
25046;DHT22;13044;49.304;12.840;2023-07-16T07:51:11;22.10;99.90
25046;DHT22;13044;49.304;12.840;2023-07-16T07:53:38;22.00;99.90
25046;DHT22;13044;49.304;12.840;2023-07-16T07:56:05;22.00;99.90
25046;DHT22;13044;49.304;12.840;2023-07-16T07:58:32;22.00;99.90
25046;DHT22;13044;49.304;12.840;2023-07-16T08:01:06;21.90;99.90
25046;DHT22;13044;49.304;12.840;2023-07-16T08:03:34;21.80;99.90
25046;DHT22;13044;49.304;12.840;2023-07-16T08:06:02;21.80;99.90
25046;DHT22;13044;49.304;12.840;2023-07-16T08:08:28;21.70;99.90
25046;DHT22;13044;49.304;12.840;2023-07-16T08:10:55;21.70;99.90
25046;DHT22;13044;49.304;12.840;2023-07-16T08:13:22;21.70;99.90
25046;DHT22;13044;49.304;12.840;2023-07-16T08:15:49;21.70;99.90
25046;DHT22;13044;49.304;12.840;2023-07-16T08:18:16;21.80;99.90
25046;DHT22;13044;49.304;12.840;2023-07-16T08:20:43;21.80;99.90
25046;DHT22;13044;49.304;12.840;2023-07-16T08:23:10;21.80;99.90
25046;DHT22;13044;49.304;12.840;2023-07-16T08:25:37;21.80;99.90
25046;DHT22;13044;49.304;12.840;2023-07-16T08:28:04;21.70;99.90
25046;DHT22;13044;49.304;12.840;2023-07-16T08:30:33;21.70;99.90
25046;DHT22;13044;49.304;12.840;2023-07-16T08:33:00;21.70;99.90
25046;DHT22;13044;49.304;12.840;2023-07-16T08:35:27;21.60;99.90
25046;DHT22;13044;49.304;12.840;2023-07-16T08:37:54;21.70;99.90
25046;DHT22;13044;49.304;12.840;2023-07-16T08:40:21;21.70;99.90
25046;DHT22;13044;49.304;12.840;2023-07-16T08:42:49;21.60;99.90
25046;DHT22;13044;49.304;12.840;2023-07-16T08:45:16;21.60;99.90
25046;DHT22;13044;49.304;12.840;2023-07-16T08:47:46;21.60;99.90
25046;DHT22;13044;49.304;12.840;2023-07-16T08:50:13;21.60;99.90
25046;DHT22;13044;49.304;12.840;2023-07-16T08:52:40;21.70;99.90
25046;DHT22;13044;49.304;12.840;2023-07-16T08:55:07;21.70;99.90
25046;DHT22;13044;49.304;12.840;2023-07-16T08:57:35;21.80;99.90
25046;DHT22;13044;49.304;12.840;2023-07-16T09:00:03;21.80;99.90
25046;DHT22;13044;49.304;12.840;2023-07-16T09:02:32;21.90;99.90
25046;DHT22;13044;49.304;12.840;2023-07-16T09:05:00;22.00;99.90
25046;DHT22;13044;49.304;12.840;2023-07-16T09:07:27;22.00;99.90
25046;DHT22;13044;49.304;12.840;2023-07-16T09:09:55;21.90;99.90
25046;DHT22;13044;49.304;12.840;2023-07-16T09:12:27;21.90;99.90
25046;DHT22;13044;49.304;12.840;2023-07-16T09:14:54;22.00;99.90
25046;DHT22;13044;49.304;12.840;2023-07-16T09:17:22;22.00;99.90
25046;DHT22;13044;49.304;12.840;2023-07-16T09:19:51;22.00;99.90
25046;DHT22;13044;49.304;12.840;2023-07-16T09:22:19;22.00;99.90
25046;DHT22;13044;49.304;12.840;2023-07-16T09:24:47;22.00;99.90
25046;DHT22;13044;49.304;12.840;2023-07-16T09:27:14;22.00;99.90
25046;DHT22;13044;49.304;12.840;2023-07-16T09:29:41;22.00;99.90
25046;DHT22;13044;49.304;12.840;2023-07-16T09:32:08;22.10;99.90
25046;DHT22;13044;49.304;12.840;2023-07-16T09:34:36;22.10;99.90
25046;DHT22;13044;49.304;12.840;2023-07-16T09:37:04;22.10;99.90
25046;DHT22;13044;49.304;12.840;2023-07-16T09:39:32;22.10;99.90
25046;DHT22;13044;49.304;12.840;2023-07-16T09:42:02;22.10;99.90
25046;DHT22;13044;49.304;12.840;2023-07-16T09:44:29;22.10;99.90
25046;DHT22;13044;49.304;12.840;2023-07-16T09:46:56;22.20;99.90
25046;DHT22;13044;49.304;12.840;2023-07-16T09:49:25;22.20;99.90
25046;DHT22;13044;49.304;12.840;2023-07-16T09:51:57;22.20;99.90
25046;DHT22;13044;49.304;12.840;2023-07-16T09:54:25;22.20;99.90
25046;DHT22;13044;49.304;12.840;2023-07-16T09:56:59;22.20;99.90
25046;DHT22;13044;49.304;12.840;2023-07-16T09:59:29;22.20;99.90
25046;DHT22;13044;49.304;12.840;2023-07-16T10:01:57;22.20;99.90
25046;DHT22;13044;49.304;12.840;2023-07-16T10:04:24;22.20;99.90
25046;DHT22;13044;49.304;12.840;2023-07-16T10:06:57;22.10;99.90
25046;DHT22;13044;49.304;12.840;2023-07-16T10:09:41;22.20;99.90
25046;DHT22;13044;49.304;12.840;2023-07-16T10:12:18;22.20;99.90
25046;DHT22;13044;49.304;12.840;2023-07-16T10:14:51;22.20;99.90
25046;DHT22;13044;49.304;12.840;2023-07-16T10:17:23;22.30;99.90
25046;DHT22;13044;49.304;12.840;2023-07-16T10:19:59;22.30;99.90
25046;DHT22;13044;49.304;12.840;2023-07-16T10:22:38;22.30;99.90
25046;DHT22;13044;49.304;12.840;2023-07-16T10:25:21;22.40;99.90
25046;DHT22;13044;49.304;12.840;2023-07-16T10:27:51;22.50;99.90
25046;DHT22;13044;49.304;12.840;2023-07-16T10:30:19;22.50;99.90
25046;DHT22;13044;49.304;12.840;2023-07-16T10:32:46;22.40;99.90
25046;DHT22;13044;49.304;12.840;2023-07-16T10:35:13;22.50;99.90
25046;DHT22;13044;49.304;12.840;2023-07-16T10:37:40;22.60;99.90
25046;DHT22;13044;49.304;12.840;2023-07-16T10:40:11;22.70;99.90
25046;DHT22;13044;49.304;12.840;2023-07-16T10:42:41;22.70;99.90
25046;DHT22;13044;49.304;12.840;2023-07-16T10:45:13;22.70;99.90
25046;DHT22;13044;49.304;12.840;2023-07-16T10:47:51;22.70;99.90
25046;DHT22;13044;49.304;12.840;2023-07-16T10:50:20;22.70;99.90
25046;DHT22;13044;49.304;12.840;2023-07-16T10:52:52;22.70;99.90
25046;DHT22;13044;49.304;12.840;2023-07-16T10:55:23;22.70;99.90
25046;DHT22;13044;49.304;12.840;2023-07-16T10:57:52;22.80;99.90
25046;DHT22;13044;49.304;12.840;2023-07-16T11:00:21;22.80;99.90
25046;DHT22;13044;49.304;12.840;2023-07-16T11:02:52;22.90;99.90
25046;DHT22;13044;49.304;12.840;2023-07-16T11:05:19;23.00;99.90
25046;DHT22;13044;49.304;12.840;2023-07-16T11:07:48;23.10;99.90
25046;DHT22;13044;49.304;12.840;2023-07-16T11:10:20;23.40;99.90
25046;DHT22;13044;49.304;12.840;2023-07-16T11:12:52;23.50;99.90
25046;DHT22;13044;49.304;12.840;2023-07-16T11:15:32;23.50;99.90
25046;DHT22;13044;49.304;12.840;2023-07-16T11:18:01;23.60;99.90
25046;DHT22;13044;49.304;12.840;2023-07-16T11:20:30;23.60;99.90
25046;DHT22;13044;49.304;12.840;2023-07-16T11:23:00;23.60;99.90
25046;DHT22;13044;49.304;12.840;2023-07-16T11:25:28;23.70;99.90
25046;DHT22;13044;49.304;12.840;2023-07-16T11:27:56;23.70;99.90
25046;DHT22;13044;49.304;12.840;2023-07-16T11:30:24;23.80;99.90
25046;DHT22;13044;49.304;12.840;2023-07-16T11:32:52;23.90;99.90
25046;DHT22;13044;49.304;12.840;2023-07-16T11:35:20;24.00;99.90
25046;DHT22;13044;49.304;12.840;2023-07-16T11:37:47;24.20;99.90
25046;DHT22;13044;49.304;12.840;2023-07-16T11:40:17;24.30;99.90
25046;DHT22;13044;49.304;12.840;2023-07-16T11:42:45;24.30;99.90
25046;DHT22;13044;49.304;12.840;2023-07-16T11:45:23;24.40;99.90
25046;DHT22;13044;49.304;12.840;2023-07-16T11:47:54;24.40;99.90
25046;DHT22;13044;49.304;12.840;2023-07-16T11:50:21;24.50;99.90
25046;DHT22;13044;49.304;12.840;2023-07-16T11:52:58;24.60;99.90
25046;DHT22;13044;49.304;12.840;2023-07-16T11:55:26;24.60;99.90
25046;DHT22;13044;49.304;12.840;2023-07-16T11:57:53;24.70;99.90
25046;DHT22;13044;49.304;12.840;2023-07-16T12:00:20;24.60;99.90
25046;DHT22;13044;49.304;12.840;2023-07-16T12:02:47;24.60;99.90
25046;DHT22;13044;49.304;12.840;2023-07-16T12:05:22;24.70;99.90
25046;DHT22;13044;49.304;12.840;2023-07-16T12:08:07;24.70;99.90
25046;DHT22;13044;49.304;12.840;2023-07-16T12:10:41;24.80;99.90
25046;DHT22;13044;49.304;12.840;2023-07-16T12:13:08;24.80;99.90
25046;DHT22;13044;49.304;12.840;2023-07-16T12:15:35;24.80;99.90
25046;DHT22;13044;49.304;12.840;2023-07-16T12:18:02;25.00;99.90
25046;DHT22;13044;49.304;12.840;2023-07-16T12:20:30;25.00;99.90
25046;DHT22;13044;49.304;12.840;2023-07-16T12:22:57;25.10;99.90
25046;DHT22;13044;49.304;12.840;2023-07-16T12:25:24;25.30;99.90
25046;DHT22;13044;49.304;12.840;2023-07-16T12:27:51;25.50;99.90
25046;DHT22;13044;49.304;12.840;2023-07-16T12:30:22;25.70;99.90
25046;DHT22;13044;49.304;12.840;2023-07-16T12:32:49;25.80;99.90
25046;DHT22;13044;49.304;12.840;2023-07-16T12:35:16;25.80;99.90
25046;DHT22;13044;49.304;12.840;2023-07-16T12:37:43;25.90;99.90
25046;DHT22;13044;49.304;12.840;2023-07-16T12:40:10;26.10;99.50
25046;DHT22;13044;49.304;12.840;2023-07-16T12:42:38;26.20;99.00
25046;DHT22;13044;49.304;12.840;2023-07-16T12:45:05;26.30;98.60
25046;DHT22;13044;49.304;12.840;2023-07-16T12:47:33;26.40;98.30
25046;DHT22;13044;49.304;12.840;2023-07-16T12:50:00;26.50;97.50
25046;DHT22;13044;49.304;12.840;2023-07-16T12:52:27;26.50;97.30
25046;DHT22;13044;49.304;12.840;2023-07-16T12:54:54;26.50;96.40
25046;DHT22;13044;49.304;12.840;2023-07-16T12:57:24;26.60;96.90
25046;DHT22;13044;49.304;12.840;2023-07-16T12:59:51;26.70;96.80
25046;DHT22;13044;49.304;12.840;2023-07-16T13:02:18;26.70;96.30
25046;DHT22;13044;49.304;12.840;2023-07-16T13:04:45;26.80;95.50
25046;DHT22;13044;49.304;12.840;2023-07-16T13:07:12;26.90;95.30
25046;DHT22;13044;49.304;12.840;2023-07-16T13:09:40;27.00;95.00
25046;DHT22;13044;49.304;12.840;2023-07-16T13:12:07;27.00;95.20
25046;DHT22;13044;49.304;12.840;2023-07-16T13:14:34;27.00;94.40
25046;DHT22;13044;49.304;12.840;2023-07-16T13:17:01;27.10;94.50
25046;DHT22;13044;49.304;12.840;2023-07-16T13:19:31;27.00;93.90
25046;DHT22;13044;49.304;12.840;2023-07-16T13:22:01;27.00;94.40
25046;DHT22;13044;49.304;12.840;2023-07-16T13:24:28;26.90;94.00
25046;DHT22;13044;49.304;12.840;2023-07-16T13:26:55;27.00;94.80
25046;DHT22;13044;49.304;12.840;2023-07-16T13:29:22;27.10;94.10
25046;DHT22;13044;49.304;12.840;2023-07-16T13:31:49;27.00;94.00
25046;DHT22;13044;49.304;12.840;2023-07-16T13:34:16;27.10;94.20
25046;DHT22;13044;49.304;12.840;2023-07-16T13:36:43;27.20;94.10
25046;DHT22;13044;49.304;12.840;2023-07-16T13:39:10;27.30;93.80
25046;DHT22;13044;49.304;12.840;2023-07-16T13:41:39;27.30;92.90
25046;DHT22;13044;49.304;12.840;2023-07-16T13:44:07;27.30;93.30
25046;DHT22;13044;49.304;12.840;2023-07-16T13:46:34;27.30;92.80
25046;DHT22;13044;49.304;12.840;2023-07-16T13:49:01;27.40;93.10
25046;DHT22;13044;49.304;12.840;2023-07-16T13:51:28;27.40;92.70
25046;DHT22;13044;49.304;12.840;2023-07-16T13:53:54;27.50;92.90
25046;DHT22;13044;49.304;12.840;2023-07-16T13:56:21;27.50;92.70
25046;DHT22;13044;49.304;12.840;2023-07-16T13:58:48;27.70;92.00
25046;DHT22;13044;49.304;12.840;2023-07-16T14:01:17;27.70;92.10
25046;DHT22;13044;49.304;12.840;2023-07-16T14:03:45;27.70;91.50
25046;DHT22;13044;49.304;12.840;2023-07-16T14:06:12;27.70;91.30
25046;DHT22;13044;49.304;12.840;2023-07-16T14:08:39;27.60;91.20
25046;DHT22;13044;49.304;12.840;2023-07-16T14:11:06;27.60;91.00
25046;DHT22;13044;49.304;12.840;2023-07-16T14:13:33;27.60;91.00
25046;DHT22;13044;49.304;12.840;2023-07-16T14:16:00;27.60;90.50
25046;DHT22;13044;49.304;12.840;2023-07-16T14:18:26;27.60;90.60
25046;DHT22;13044;49.304;12.840;2023-07-16T14:20:53;27.60;90.90
25046;DHT22;13044;49.304;12.840;2023-07-16T14:23:20;27.70;91.10
25046;DHT22;13044;49.304;12.840;2023-07-16T14:25:48;27.80;90.30
25046;DHT22;13044;49.304;12.840;2023-07-16T14:28:15;27.80;90.60
25046;DHT22;13044;49.304;12.840;2023-07-16T14:30:42;27.90;90.30
25046;DHT22;13044;49.304;12.840;2023-07-16T14:33:09;27.80;89.30
25046;DHT22;13044;49.304;12.840;2023-07-16T14:35:37;27.80;89.30
25046;DHT22;13044;49.304;12.840;2023-07-16T14:38:04;27.70;89.00
25046;DHT22;13044;49.304;12.840;2023-07-16T14:40:32;27.60;89.40
25046;DHT22;13044;49.304;12.840;2023-07-16T14:42:59;27.70;90.00
25046;DHT22;13044;49.304;12.840;2023-07-16T14:45:26;27.70;90.00
25046;DHT22;13044;49.304;12.840;2023-07-16T14:47:54;27.70;90.10
25046;DHT22;13044;49.304;12.840;2023-07-16T14:50:21;27.70;89.00
25046;DHT22;13044;49.304;12.840;2023-07-16T14:52:48;27.70;89.90
25046;DHT22;13044;49.304;12.840;2023-07-16T14:55:15;27.70;90.40
25046;DHT22;13044;49.304;12.840;2023-07-16T14:57:42;27.80;90.00
25046;DHT22;13044;49.304;12.840;2023-07-16T15:00:09;27.80;89.60
25046;DHT22;13044;49.304;12.840;2023-07-16T15:02:40;27.80;89.00
25046;DHT22;13044;49.304;12.840;2023-07-16T15:05:09;27.60;88.30
25046;DHT22;13044;49.304;12.840;2023-07-16T15:07:36;27.50;88.20
25046;DHT22;13044;49.304;12.840;2023-07-16T15:10:04;27.40;88.60
25046;DHT22;13044;49.304;12.840;2023-07-16T15:12:31;27.40;88.90
25046;DHT22;13044;49.304;12.840;2023-07-16T15:14:59;27.30;89.50
25046;DHT22;13044;49.304;12.840;2023-07-16T15:17:26;27.30;89.80
25046;DHT22;13044;49.304;12.840;2023-07-16T15:19:54;27.30;89.50
25046;DHT22;13044;49.304;12.840;2023-07-16T15:22:21;27.20;89.90
25046;DHT22;13044;49.304;12.840;2023-07-16T15:24:49;27.10;89.60
25046;DHT22;13044;49.304;12.840;2023-07-16T15:27:16;27.10;89.80